sensor_id;sensor_type;location;lat;lon;timestamp;P1;durP1;ratioP1;P2;durP2;ratioP2
7231;SDS011;3657;49.630;11.018;2023-02-23T00:00:47;16.10;;;15.13;;
7231;SDS011;3657;49.630;11.018;2023-02-23T00:03:13;12.27;;;11.77;;
7231;SDS011;3657;49.630;11.018;2023-02-23T00:05:40;13.60;;;12.93;;
7231;SDS011;3657;49.630;11.018;2023-02-23T00:08:07;12.93;;;12.30;;
7231;SDS011;3657;49.630;11.018;2023-02-23T00:10:35;14.43;;;13.53;;
7231;SDS011;3657;49.630;11.018;2023-02-23T00:13:02;12.73;;;12.13;;
7231;SDS011;3657;49.630;11.018;2023-02-23T00:15:30;12.60;;;12.03;;
7231;SDS011;3657;49.630;11.018;2023-02-23T00:17:57;13.10;;;12.47;;
7231;SDS011;3657;49.630;11.018;2023-02-23T00:20:24;17.03;;;15.93;;
7231;SDS011;3657;49.630;11.018;2023-02-23T00:22:52;13.30;;;12.70;;
7231;SDS011;3657;49.630;11.018;2023-02-23T00:25:19;13.23;;;12.60;;
7231;SDS011;3657;49.630;11.018;2023-02-23T00:27:46;12.63;;;12.07;;
7231;SDS011;3657;49.630;11.018;2023-02-23T00:30:14;14.07;;;13.33;;
7231;SDS011;3657;49.630;11.018;2023-02-23T00:32:43;13.10;;;12.50;;
7231;SDS011;3657;49.630;11.018;2023-02-23T00:35:10;13.87;;;13.17;;
7231;SDS011;3657;49.630;11.018;2023-02-23T00:37:41;13.27;;;12.53;;
7231;SDS011;3657;49.630;11.018;2023-02-23T00:40:09;13.73;;;13.03;;
7231;SDS011;3657;49.630;11.018;2023-02-23T00:42:40;15.13;;;14.23;;
7231;SDS011;3657;49.630;11.018;2023-02-23T00:45:07;13.93;;;13.23;;
7231;SDS011;3657;49.630;11.018;2023-02-23T00:47:36;14.03;;;13.13;;
7231;SDS011;3657;49.630;11.018;2023-02-23T00:50:06;14.60;;;13.80;;
7231;SDS011;3657;49.630;11.018;2023-02-23T00:52:35;14.23;;;13.60;;
7231;SDS011;3657;49.630;11.018;2023-02-23T00:55:03;15.77;;;14.77;;
7231;SDS011;3657;49.630;11.018;2023-02-23T00:57:30;13.17;;;12.57;;
7231;SDS011;3657;49.630;11.018;2023-02-23T00:59:56;12.97;;;12.33;;
7231;SDS011;3657;49.630;11.018;2023-02-23T01:02:23;14.47;;;13.67;;
7231;SDS011;3657;49.630;11.018;2023-02-23T01:04:54;13.37;;;12.77;;
7231;SDS011;3657;49.630;11.018;2023-02-23T01:07:22;14.90;;;14.10;;
7231;SDS011;3657;49.630;11.018;2023-02-23T01:09:49;13.60;;;12.80;;
7231;SDS011;3657;49.630;11.018;2023-02-23T01:12:16;13.63;;;12.83;;
7231;SDS011;3657;49.630;11.018;2023-02-23T01:14:43;15.13;;;14.23;;
7231;SDS011;3657;49.630;11.018;2023-02-23T01:17:11;13.60;;;12.90;;
7231;SDS011;3657;49.630;11.018;2023-02-23T01:19:38;13.57;;;12.97;;
7231;SDS011;3657;49.630;11.018;2023-02-23T01:22:05;14.80;;;13.97;;
7231;SDS011;3657;49.630;11.018;2023-02-23T01:24:33;14.47;;;13.67;;
7231;SDS011;3657;49.630;11.018;2023-02-23T01:27:00;15.07;;;14.27;;
7231;SDS011;3657;49.630;11.018;2023-02-23T01:29:26;14.83;;;14.07;;
7231;SDS011;3657;49.630;11.018;2023-02-23T01:31:53;14.20;;;13.40;;
7231;SDS011;3657;49.630;11.018;2023-02-23T01:34:20;15.60;;;14.60;;
7231;SDS011;3657;49.630;11.018;2023-02-23T01:36:46;15.20;;;14.30;;
7231;SDS011;3657;49.630;11.018;2023-02-23T01:39:14;15.13;;;14.20;;
7231;SDS011;3657;49.630;11.018;2023-02-23T01:41:43;14.37;;;13.57;;
7231;SDS011;3657;49.630;11.018;2023-02-23T01:47:14;14.50;;;13.87;;
7231;SDS011;3657;49.630;11.018;2023-02-23T01:49:44;24.17;;;22.10;;
7231;SDS011;3657;49.630;11.018;2023-02-23T01:52:12;16.23;;;15.23;;
7231;SDS011;3657;49.630;11.018;2023-02-23T01:54:42;21.73;;;20.03;;
7231;SDS011;3657;49.630;11.018;2023-02-23T01:57:15;29.50;;;27.00;;
7231;SDS011;3657;49.630;11.018;2023-02-23T01:59:46;22.33;;;20.57;;
7231;SDS011;3657;49.630;11.018;2023-02-23T02:02:15;19.90;;;18.60;;
7231;SDS011;3657;49.630;11.018;2023-02-23T02:04:44;18.83;;;17.57;;
7231;SDS011;3657;49.630;11.018;2023-02-23T02:07:13;17.73;;;16.60;;
7231;SDS011;3657;49.630;11.018;2023-02-23T02:09:42;19.40;;;18.07;;
7231;SDS011;3657;49.630;11.018;2023-02-23T02:12:32;18.20;;;16.87;;
7231;SDS011;3657;49.630;11.018;2023-02-23T02:14:59;17.63;;;16.43;;
7231;SDS011;3657;49.630;11.018;2023-02-23T02:17:29;17.10;;;16.10;;
7231;SDS011;3657;49.630;11.018;2023-02-23T02:20:10;21.43;;;19.70;;
7231;SDS011;3657;49.630;11.018;2023-02-23T02:23:06;19.10;;;17.80;;
7231;SDS011;3657;49.630;11.018;2023-02-23T02:26:17;18.80;;;17.50;;
7231;SDS011;3657;49.630;11.018;2023-02-23T02:29:00;18.97;;;17.63;;
7231;SDS011;3657;49.630;11.018;2023-02-23T02:38:09;18.57;;;17.37;;
7231;SDS011;3657;49.630;11.018;2023-02-23T02:40:44;24.40;;;22.37;;
7231;SDS011;3657;49.630;11.018;2023-02-23T02:43:19;28.10;;;25.63;;
7231;SDS011;3657;49.630;11.018;2023-02-23T02:45:51;18.03;;;16.83;;
7231;SDS011;3657;49.630;11.018;2023-02-23T02:48:23;17.77;;;16.57;;
7231;SDS011;3657;49.630;11.018;2023-02-23T02:50:59;17.47;;;16.40;;
7231;SDS011;3657;49.630;11.018;2023-02-23T02:53:37;21.50;;;19.80;;
7231;SDS011;3657;49.630;11.018;2023-02-23T02:56:08;17.33;;;16.23;;
7231;SDS011;3657;49.630;11.018;2023-02-23T02:58:36;25.83;;;23.53;;
7231;SDS011;3657;49.630;11.018;2023-02-23T03:01:08;20.07;;;18.73;;
7231;SDS011;3657;49.630;11.018;2023-02-23T03:03:55;21.73;;;19.87;;
7231;SDS011;3657;49.630;11.018;2023-02-23T03:06:43;19.50;;;18.13;;
7231;SDS011;3657;49.630;11.018;2023-02-23T03:09:35;19.10;;;17.83;;
7231;SDS011;3657;49.630;11.018;2023-02-23T03:12:26;25.20;;;23.17;;
7231;SDS011;3657;49.630;11.018;2023-02-23T03:15:26;18.77;;;17.57;;
7231;SDS011;3657;49.630;11.018;2023-02-23T03:18:33;19.23;;;17.80;;
7231;SDS011;3657;49.630;11.018;2023-02-23T03:21:32;29.53;;;26.63;;
7231;SDS011;3657;49.630;11.018;2023-02-23T03:24:21;18.23;;;17.13;;
7231;SDS011;3657;49.630;11.018;2023-02-23T03:27:14;20.40;;;18.40;;
7231;SDS011;3657;49.630;11.018;2023-02-23T03:30:04;19.07;;;17.67;;
7231;SDS011;3657;49.630;11.018;2023-02-23T03:32:54;20.03;;;18.60;;
7231;SDS011;3657;49.630;11.018;2023-02-23T03:35:42;18.87;;;17.57;;
7231;SDS011;3657;49.630;11.018;2023-02-23T03:38:33;20.50;;;18.80;;
7231;SDS011;3657;49.630;11.018;2023-02-23T03:41:21;19.23;;;17.87;;
7231;SDS011;3657;49.630;11.018;2023-02-23T03:44:10;20.37;;;18.87;;
7231;SDS011;3657;49.630;11.018;2023-02-23T03:46:57;20.20;;;18.77;;
7231;SDS011;3657;49.630;11.018;2023-02-23T03:49:45;18.77;;;17.40;;
7231;SDS011;3657;49.630;11.018;2023-02-23T03:52:32;18.57;;;17.40;;
7231;SDS011;3657;49.630;11.018;2023-02-23T03:55:20;19.23;;;17.90;;
7231;SDS011;3657;49.630;11.018;2023-02-23T03:58:10;18.57;;;17.37;;
7231;SDS011;3657;49.630;11.018;2023-02-23T04:01:00;18.17;;;16.97;;
7231;SDS011;3657;49.630;11.018;2023-02-23T04:03:48;20.90;;;19.37;;
7231;SDS011;3657;49.630;11.018;2023-02-23T04:06:35;19.50;;;18.07;;
7231;SDS011;3657;49.630;11.018;2023-02-23T04:09:23;18.67;;;17.47;;
7231;SDS011;3657;49.630;11.018;2023-02-23T04:12:08;19.10;;;17.80;;
7231;SDS011;3657;49.630;11.018;2023-02-23T04:14:59;18.93;;;17.70;;
7231;SDS011;3657;49.630;11.018;2023-02-23T04:17:30;18.83;;;17.63;;
7231;SDS011;3657;49.630;11.018;2023-02-23T04:19:57;19.10;;;17.90;;
7231;SDS011;3657;49.630;11.018;2023-02-23T04:22:24;19.77;;;18.37;;
7231;SDS011;3657;49.630;11.018;2023-02-23T04:24:51;17.83;;;16.57;;
7231;SDS011;3657;49.630;11.018;2023-02-23T04:27:18;18.33;;;17.17;;
7231;SDS011;3657;49.630;11.018;2023-02-23T04:29:45;20.23;;;18.90;;
7231;SDS011;3657;49.630;11.018;2023-02-23T04:32:12;19.07;;;17.77;;
7231;SDS011;3657;49.630;11.018;2023-02-23T04:34:43;18.77;;;17.50;;
7231;SDS011;3657;49.630;11.018;2023-02-23T04:37:09;18.97;;;17.77;;
7231;SDS011;3657;49.630;11.018;2023-02-23T04:39:36;18.60;;;17.30;;
7231;SDS011;3657;49.630;11.018;2023-02-23T04:42:03;19.03;;;17.73;;
7231;SDS011;3657;49.630;11.018;2023-02-23T04:44:30;18.17;;;17.07;;
7231;SDS011;3657;49.630;11.018;2023-02-23T04:46:57;18.87;;;17.57;;
7231;SDS011;3657;49.630;11.018;2023-02-23T04:49:23;20.27;;;18.43;;
7231;SDS011;3657;49.630;11.018;2023-02-23T04:51:52;17.93;;;16.83;;
7231;SDS011;3657;49.630;11.018;2023-02-23T04:54:19;18.90;;;17.53;;
7231;SDS011;3657;49.630;11.018;2023-02-23T04:56:46;20.57;;;19.17;;
7231;SDS011;3657;49.630;11.018;2023-02-23T04:59:12;19.97;;;18.57;;
7231;SDS011;3657;49.630;11.018;2023-02-23T05:01:39;17.97;;;16.87;;
7231;SDS011;3657;49.630;11.018;2023-02-23T05:04:06;17.87;;;16.87;;
7231;SDS011;3657;49.630;11.018;2023-02-23T05:06:32;19.20;;;17.83;;
7231;SDS011;3657;49.630;11.018;2023-02-23T05:09:00;18.40;;;17.17;;
7231;SDS011;3657;49.630;11.018;2023-02-23T05:11:27;18.80;;;17.60;;
7231;SDS011;3657;49.630;11.018;2023-02-23T05:13:54;18.40;;;17.10;;
7231;SDS011;3657;49.630;11.018;2023-02-23T05:16:21;19.70;;;18.37;;
7231;SDS011;3657;49.630;11.018;2023-02-23T05:18:48;19.60;;;18.30;;
7231;SDS011;3657;49.630;11.018;2023-02-23T05:21:15;19.30;;;18.00;;
7231;SDS011;3657;49.630;11.018;2023-02-23T05:23:41;19.17;;;17.87;;
7231;SDS011;3657;49.630;11.018;2023-02-23T05:26:11;19.53;;;18.20;;
7231;SDS011;3657;49.630;11.018;2023-02-23T05:28:39;20.03;;;18.70;;
7231;SDS011;3657;49.630;11.018;2023-02-23T05:31:07;20.00;;;18.50;;
7231;SDS011;3657;49.630;11.018;2023-02-23T05:33:34;18.17;;;16.87;;
7231;SDS011;3657;49.630;11.018;2023-02-23T05:36:06;18.23;;;17.10;;
7231;SDS011;3657;49.630;11.018;2023-02-23T05:38:34;17.97;;;16.87;;
7231;SDS011;3657;49.630;11.018;2023-02-23T05:41:03;18.80;;;17.50;;
7231;SDS011;3657;49.630;11.018;2023-02-23T05:43:31;18.00;;;16.77;;
7231;SDS011;3657;49.630;11.018;2023-02-23T05:45:58;17.87;;;16.67;;
7231;SDS011;3657;49.630;11.018;2023-02-23T05:48:25;17.83;;;16.70;;
7231;SDS011;3657;49.630;11.018;2023-02-23T05:50:51;17.47;;;16.30;;
7231;SDS011;3657;49.630;11.018;2023-02-23T05:53:18;17.30;;;16.20;;
7231;SDS011;3657;49.630;11.018;2023-02-23T05:55:45;17.73;;;16.57;;
7231;SDS011;3657;49.630;11.018;2023-02-23T05:58:11;18.40;;;17.10;;
7231;SDS011;3657;49.630;11.018;2023-02-23T06:00:39;19.63;;;18.13;;
7231;SDS011;3657;49.630;11.018;2023-02-23T06:03:06;17.90;;;16.80;;
7231;SDS011;3657;49.630;11.018;2023-02-23T06:05:33;16.73;;;15.73;;
7231;SDS011;3657;49.630;11.018;2023-02-23T06:07:59;18.03;;;16.83;;
7231;SDS011;3657;49.630;11.018;2023-02-23T06:10:26;17.40;;;16.40;;
7231;SDS011;3657;49.630;11.018;2023-02-23T06:12:53;19.60;;;18.03;;
7231;SDS011;3657;49.630;11.018;2023-02-23T06:15:20;15.23;;;14.23;;
7231;SDS011;3657;49.630;11.018;2023-02-23T06:17:48;16.67;;;15.67;;
7231;SDS011;3657;49.630;11.018;2023-02-23T06:20:14;18.47;;;17.27;;
7231;SDS011;3657;49.630;11.018;2023-02-23T06:22:41;16.60;;;15.60;;
7231;SDS011;3657;49.630;11.018;2023-02-23T06:25:08;17.00;;;15.90;;
7231;SDS011;3657;49.630;11.018;2023-02-23T06:27:36;16.90;;;15.83;;
7231;SDS011;3657;49.630;11.018;2023-02-23T06:30:04;17.60;;;16.50;;
7231;SDS011;3657;49.630;11.018;2023-02-23T06:32:31;18.97;;;17.67;;
7231;SDS011;3657;49.630;11.018;2023-02-23T06:34:59;19.43;;;18.03;;
7231;SDS011;3657;49.630;11.018;2023-02-23T06:37:27;18.67;;;17.30;;
7231;SDS011;3657;49.630;11.018;2023-02-23T06:39:54;20.20;;;18.80;;
7231;SDS011;3657;49.630;11.018;2023-02-23T06:42:20;17.13;;;16.07;;
7231;SDS011;3657;49.630;11.018;2023-02-23T06:44:47;19.50;;;18.17;;
7231;SDS011;3657;49.630;11.018;2023-02-23T06:47:14;17.47;;;16.23;;
7231;SDS011;3657;49.630;11.018;2023-02-23T06:49:41;18.20;;;16.97;;
7231;SDS011;3657;49.630;11.018;2023-02-23T06:52:09;17.90;;;16.87;;
7231;SDS011;3657;49.630;11.018;2023-02-23T06:54:37;20.03;;;18.67;;
7231;SDS011;3657;49.630;11.018;2023-02-23T06:57:04;18.70;;;17.40;;
7231;SDS011;3657;49.630;11.018;2023-02-23T06:59:30;18.27;;;17.23;;
7231;SDS011;3657;49.630;11.018;2023-02-23T07:04:22;19.43;;;18.10;;
7231;SDS011;3657;49.630;11.018;2023-02-23T07:06:49;19.17;;;17.87;;
7231;SDS011;3657;49.630;11.018;2023-02-23T07:09:18;18.77;;;17.57;;
7231;SDS011;3657;49.630;11.018;2023-02-23T07:11:44;19.30;;;18.00;;
7231;SDS011;3657;49.630;11.018;2023-02-23T07:14:11;20.83;;;19.23;;
7231;SDS011;3657;49.630;11.018;2023-02-23T07:16:38;20.07;;;18.67;;
7231;SDS011;3657;49.630;11.018;2023-02-23T07:19:05;22.13;;;20.33;;
7231;SDS011;3657;49.630;11.018;2023-02-23T07:21:32;20.70;;;19.10;;
7231;SDS011;3657;49.630;11.018;2023-02-23T07:23:59;20.60;;;19.07;;
7231;SDS011;3657;49.630;11.018;2023-02-23T07:26:30;20.87;;;19.37;;
7231;SDS011;3657;49.630;11.018;2023-02-23T07:28:57;18.30;;;17.17;;
7231;SDS011;3657;49.630;11.018;2023-02-23T07:31:24;19.40;;;18.10;;
7231;SDS011;3657;49.630;11.018;2023-02-23T07:33:51;21.57;;;20.10;;
7231;SDS011;3657;49.630;11.018;2023-02-23T07:36:18;20.07;;;18.43;;
7231;SDS011;3657;49.630;11.018;2023-02-23T07:38:46;19.73;;;18.33;;
7231;SDS011;3657;49.630;11.018;2023-02-23T07:41:12;19.93;;;18.53;;
7231;SDS011;3657;49.630;11.018;2023-02-23T07:43:40;23.10;;;21.23;;
7231;SDS011;3657;49.630;11.018;2023-02-23T07:46:07;21.60;;;20.00;;
7231;SDS011;3657;49.630;11.018;2023-02-23T07:48:34;21.63;;;20.10;;
7231;SDS011;3657;49.630;11.018;2023-02-23T07:51:06;20.77;;;19.40;;
7231;SDS011;3657;49.630;11.018;2023-02-23T07:53:34;20.83;;;19.20;;
7231;SDS011;3657;49.630;11.018;2023-02-23T07:56:02;20.50;;;19.13;;
7231;SDS011;3657;49.630;11.018;2023-02-23T07:58:29;19.73;;;18.40;;
7231;SDS011;3657;49.630;11.018;2023-02-23T08:00:57;18.87;;;17.57;;
7231;SDS011;3657;49.630;11.018;2023-02-23T08:03:23;21.83;;;20.13;;
7231;SDS011;3657;49.630;11.018;2023-02-23T08:05:51;22.00;;;20.20;;
7231;SDS011;3657;49.630;11.018;2023-02-23T08:08:18;27.03;;;24.83;;
7231;SDS011;3657;49.630;11.018;2023-02-23T08:10:44;21.40;;;19.80;;
7231;SDS011;3657;49.630;11.018;2023-02-23T08:13:12;18.13;;;17.03;;
7231;SDS011;3657;49.630;11.018;2023-02-23T08:15:39;20.00;;;18.60;;
7231;SDS011;3657;49.630;11.018;2023-02-23T08:18:07;19.73;;;18.33;;
7231;SDS011;3657;49.630;11.018;2023-02-23T08:20:35;21.07;;;19.70;;
7231;SDS011;3657;49.630;11.018;2023-02-23T08:23:02;31.80;;;28.90;;
7231;SDS011;3657;49.630;11.018;2023-02-23T08:25:28;19.73;;;18.23;;
7231;SDS011;3657;49.630;11.018;2023-02-23T08:27:55;22.03;;;20.23;;
7231;SDS011;3657;49.630;11.018;2023-02-23T08:30:28;20.77;;;19.20;;
7231;SDS011;3657;49.630;11.018;2023-02-23T08:32:55;19.53;;;18.03;;
7231;SDS011;3657;49.630;11.018;2023-02-23T08:35:23;21.77;;;20.27;;
7231;SDS011;3657;49.630;11.018;2023-02-23T08:37:50;21.13;;;19.53;;
7231;SDS011;3657;49.630;11.018;2023-02-23T08:40:17;21.97;;;20.27;;
7231;SDS011;3657;49.630;11.018;2023-02-23T08:42:44;24.70;;;22.70;;
7231;SDS011;3657;49.630;11.018;2023-02-23T08:45:12;33.23;;;30.00;;
7231;SDS011;3657;49.630;11.018;2023-02-23T08:47:39;24.10;;;22.23;;
7231;SDS011;3657;49.630;11.018;2023-02-23T08:50:07;29.50;;;26.97;;
7231;SDS011;3657;49.630;11.018;2023-02-23T08:52:36;21.37;;;19.77;;
7231;SDS011;3657;49.630;11.018;2023-02-23T08:55:03;21.43;;;19.77;;
7231;SDS011;3657;49.630;11.018;2023-02-23T08:57:31;25.50;;;23.17;;
7231;SDS011;3657;49.630;11.018;2023-02-23T08:59:58;27.80;;;25.07;;
7231;SDS011;3657;49.630;11.018;2023-02-23T09:02:24;44.47;;;39.80;;
7231;SDS011;3657;49.630;11.018;2023-02-23T09:04:51;35.40;;;32.07;;
7231;SDS011;3657;49.630;11.018;2023-02-23T09:07:19;23.10;;;21.10;;
7231;SDS011;3657;49.630;11.018;2023-02-23T09:09:53;42.37;;;37.93;;
7231;SDS011;3657;49.630;11.018;2023-02-23T09:12:19;46.70;;;41.67;;
7231;SDS011;3657;49.630;11.018;2023-02-23T09:14:46;48.30;;;42.70;;
7231;SDS011;3657;49.630;11.018;2023-02-23T09:17:13;26.23;;;23.80;;
7231;SDS011;3657;49.630;11.018;2023-02-23T09:19:40;32.40;;;29.53;;
7231;SDS011;3657;49.630;11.018;2023-02-23T09:22:06;23.17;;;21.37;;
7231;SDS011;3657;49.630;11.018;2023-02-23T09:24:33;49.37;;;42.07;;
7231;SDS011;3657;49.630;11.018;2023-02-23T09:27:01;52.40;;;45.03;;
7231;SDS011;3657;49.630;11.018;2023-02-23T09:29:27;50.43;;;42.83;;
7231;SDS011;3657;49.630;11.018;2023-02-23T09:31:54;56.57;;;45.90;;
7231;SDS011;3657;49.630;11.018;2023-02-23T09:34:22;55.00;;;46.73;;
7231;SDS011;3657;49.630;11.018;2023-02-23T09:36:48;46.97;;;41.80;;
7231;SDS011;3657;49.630;11.018;2023-02-23T09:39:16;35.70;;;32.03;;
7231;SDS011;3657;49.630;11.018;2023-02-23T09:44:51;54.90;;;47.93;;
7231;SDS011;3657;49.630;11.018;2023-02-23T09:47:29;60.07;;;53.50;;
7231;SDS011;3657;49.630;11.018;2023-02-23T09:50:03;59.13;;;50.17;;
7231;SDS011;3657;49.630;11.018;2023-02-23T09:52:39;46.00;;;41.23;;
7231;SDS011;3657;49.630;11.018;2023-02-23T09:55:09;42.20;;;37.70;;
7231;SDS011;3657;49.630;11.018;2023-02-23T09:57:39;40.83;;;36.57;;
7231;SDS011;3657;49.630;11.018;2023-02-23T10:00:12;45.40;;;40.20;;
7231;SDS011;3657;49.630;11.018;2023-02-23T10:05:37;40.77;;;36.47;;
7231;SDS011;3657;49.630;11.018;2023-02-23T10:08:12;36.70;;;33.10;;
7231;SDS011;3657;49.630;11.018;2023-02-23T10:10:49;37.30;;;33.30;;
7231;SDS011;3657;49.630;11.018;2023-02-23T10:13:25;51.77;;;42.57;;
7231;SDS011;3657;49.630;11.018;2023-02-23T10:16:03;37.53;;;33.60;;
7231;SDS011;3657;49.630;11.018;2023-02-23T10:18:39;52.93;;;45.73;;
7231;SDS011;3657;49.630;11.018;2023-02-23T10:21:15;43.80;;;38.67;;
7231;SDS011;3657;49.630;11.018;2023-02-23T10:23:50;50.17;;;44.43;;
7231;SDS011;3657;49.630;11.018;2023-02-23T10:26:20;39.73;;;35.43;;
7231;SDS011;3657;49.630;11.018;2023-02-23T10:28:51;53.37;;;45.57;;
7231;SDS011;3657;49.630;11.018;2023-02-23T10:31:24;56.53;;;47.50;;
7231;SDS011;3657;49.630;11.018;2023-02-23T10:33:56;45.23;;;38.40;;
7231;SDS011;3657;49.630;11.018;2023-02-23T10:36:30;30.57;;;27.80;;
7231;SDS011;3657;49.630;11.018;2023-02-23T10:39:02;37.47;;;33.43;;
7231;SDS011;3657;49.630;11.018;2023-02-23T10:41:31;37.43;;;33.63;;
7231;SDS011;3657;49.630;11.018;2023-02-23T10:44:00;45.97;;;41.10;;
7231;SDS011;3657;49.630;11.018;2023-02-23T10:46:29;49.83;;;44.40;;
7231;SDS011;3657;49.630;11.018;2023-02-23T10:49:01;54.47;;;45.10;;
7231;SDS011;3657;49.630;11.018;2023-02-23T10:51:31;35.20;;;31.77;;
7231;SDS011;3657;49.630;11.018;2023-02-23T10:56:59;39.03;;;34.20;;
7231;SDS011;3657;49.630;11.018;2023-02-23T10:59:27;33.90;;;30.50;;
7231;SDS011;3657;49.630;11.018;2023-02-23T11:01:54;37.00;;;33.07;;
7231;SDS011;3657;49.630;11.018;2023-02-23T11:04:22;56.63;;;47.30;;
7231;SDS011;3657;49.630;11.018;2023-02-23T11:06:51;37.50;;;33.70;;
7231;SDS011;3657;49.630;11.018;2023-02-23T11:09:32;35.90;;;32.50;;
7231;SDS011;3657;49.630;11.018;2023-02-23T11:12:00;44.73;;;39.83;;
7231;SDS011;3657;49.630;11.018;2023-02-23T11:14:30;47.30;;;39.87;;
7231;SDS011;3657;49.630;11.018;2023-02-23T11:16:57;41.07;;;36.70;;
7231;SDS011;3657;49.630;11.018;2023-02-23T11:19:26;40.27;;;35.93;;
7231;SDS011;3657;49.630;11.018;2023-02-23T11:21:57;43.90;;;39.20;;
7231;SDS011;3657;49.630;11.018;2023-02-23T11:24:25;41.30;;;37.00;;
7231;SDS011;3657;49.630;11.018;2023-02-23T11:26:58;39.40;;;35.17;;
7231;SDS011;3657;49.630;11.018;2023-02-23T11:29:29;46.30;;;40.30;;
7231;SDS011;3657;49.630;11.018;2023-02-23T11:32:02;42.07;;;37.40;;
7231;SDS011;3657;49.630;11.018;2023-02-23T11:34:33;41.80;;;37.30;;
7231;SDS011;3657;49.630;11.018;2023-02-23T11:37:05;40.93;;;36.67;;
7231;SDS011;3657;49.630;11.018;2023-02-23T11:39:49;46.57;;;40.27;;
7231;SDS011;3657;49.630;11.018;2023-02-23T11:42:17;44.93;;;40.17;;
7231;SDS011;3657;49.630;11.018;2023-02-23T11:44:51;45.10;;;40.30;;
7231;SDS011;3657;49.630;11.018;2023-02-23T11:47:28;36.53;;;32.80;;
7231;SDS011;3657;49.630;11.018;2023-02-23T11:49:56;56.17;;;47.20;;
7231;SDS011;3657;49.630;11.018;2023-02-23T11:52:24;37.33;;;33.37;;
7231;SDS011;3657;49.630;11.018;2023-02-23T11:54:53;38.13;;;34.47;;
7231;SDS011;3657;49.630;11.018;2023-02-23T11:57:23;39.83;;;35.77;;
7231;SDS011;3657;49.630;11.018;2023-02-23T11:59:54;38.83;;;34.83;;
7231;SDS011;3657;49.630;11.018;2023-02-23T12:02:23;38.50;;;34.53;;
7231;SDS011;3657;49.630;11.018;2023-02-23T12:04:51;57.77;;;48.53;;
7231;SDS011;3657;49.630;11.018;2023-02-23T12:07:31;37.30;;;33.47;;
7231;SDS011;3657;49.630;11.018;2023-02-23T12:10:10;36.63;;;32.93;;
7231;SDS011;3657;49.630;11.018;2023-02-23T12:12:43;44.37;;;39.77;;
7231;SDS011;3657;49.630;11.018;2023-02-23T12:15:21;58.90;;;48.90;;
7231;SDS011;3657;49.630;11.018;2023-02-23T12:17:52;60.93;;;49.37;;
7231;SDS011;3657;49.630;11.018;2023-02-23T12:20:24;59.73;;;49.20;;
7231;SDS011;3657;49.630;11.018;2023-02-23T12:22:55;41.93;;;37.60;;
7231;SDS011;3657;49.630;11.018;2023-02-23T12:25:25;39.10;;;35.00;;
7231;SDS011;3657;49.630;11.018;2023-02-23T12:27:56;34.73;;;31.13;;
7231;SDS011;3657;49.630;11.018;2023-02-23T12:30:34;35.17;;;31.70;;
7231;SDS011;3657;49.630;11.018;2023-02-23T12:33:09;35.40;;;31.97;;
7231;SDS011;3657;49.630;11.018;2023-02-23T12:35:40;48.10;;;42.70;;
7231;SDS011;3657;49.630;11.018;2023-02-23T12:38:14;37.73;;;33.80;;
7231;SDS011;3657;49.630;11.018;2023-02-23T12:40:51;48.47;;;42.43;;
7231;SDS011;3657;49.630;11.018;2023-02-23T12:43:23;33.97;;;30.67;;
7231;SDS011;3657;49.630;11.018;2023-02-23T12:45:56;35.53;;;31.83;;
7231;SDS011;3657;49.630;11.018;2023-02-23T12:48:32;44.60;;;38.50;;
7231;SDS011;3657;49.630;11.018;2023-02-23T12:51:04;34.67;;;31.20;;
7231;SDS011;3657;49.630;11.018;2023-02-23T12:53:40;34.67;;;31.33;;
7231;SDS011;3657;49.630;11.018;2023-02-23T12:56:12;33.00;;;29.67;;
7231;SDS011;3657;49.630;11.018;2023-02-23T12:58:49;34.43;;;30.90;;
7231;SDS011;3657;49.630;11.018;2023-02-23T13:01:26;38.03;;;33.93;;
7231;SDS011;3657;49.630;11.018;2023-02-23T13:04:00;34.80;;;31.10;;
7231;SDS011;3657;49.630;11.018;2023-02-23T13:06:38;34.83;;;31.43;;
7231;SDS011;3657;49.630;11.018;2023-02-23T13:09:19;44.40;;;39.57;;
7231;SDS011;3657;49.630;11.018;2023-02-23T13:12:04;41.30;;;36.80;;
7231;SDS011;3657;49.630;11.018;2023-02-23T13:14:44;37.70;;;33.63;;
7231;SDS011;3657;49.630;11.018;2023-02-23T13:17:30;34.93;;;31.53;;
7231;SDS011;3657;49.630;11.018;2023-02-23T13:20:02;34.77;;;31.33;;
7231;SDS011;3657;49.630;11.018;2023-02-23T13:22:35;45.30;;;38.70;;
7231;SDS011;3657;49.630;11.018;2023-02-23T13:25:11;34.53;;;31.07;;
7231;SDS011;3657;49.630;11.018;2023-02-23T13:27:54;32.00;;;28.90;;
7231;SDS011;3657;49.630;11.018;2023-02-23T13:30:23;30.30;;;27.40;;
7231;SDS011;3657;49.630;11.018;2023-02-23T13:32:52;48.53;;;42.53;;
7231;SDS011;3657;49.630;11.018;2023-02-23T13:35:19;36.53;;;32.77;;
7231;SDS011;3657;49.630;11.018;2023-02-23T13:37:48;49.60;;;42.87;;
7231;SDS011;3657;49.630;11.018;2023-02-23T13:40:25;35.00;;;31.53;;
7231;SDS011;3657;49.630;11.018;2023-02-23T13:42:59;49.07;;;43.53;;
7231;SDS011;3657;49.630;11.018;2023-02-23T13:45:41;35.13;;;31.30;;
7231;SDS011;3657;49.630;11.018;2023-02-23T13:48:22;48.50;;;43.20;;
7231;SDS011;3657;49.630;11.018;2023-02-23T13:50:56;54.20;;;46.10;;
7231;SDS011;3657;49.630;11.018;2023-02-23T13:53:32;52.50;;;44.60;;
7231;SDS011;3657;49.630;11.018;2023-02-23T13:56:03;53.50;;;46.37;;
7231;SDS011;3657;49.630;11.018;2023-02-23T13:58:33;46.57;;;41.20;;
7231;SDS011;3657;49.630;11.018;2023-02-23T14:01:08;35.33;;;31.80;;
7231;SDS011;3657;49.630;11.018;2023-02-23T14:03:42;45.10;;;40.23;;
7231;SDS011;3657;49.630;11.018;2023-02-23T14:06:13;35.90;;;32.20;;
7231;SDS011;3657;49.630;11.018;2023-02-23T14:08:40;44.90;;;40.03;;
7231;SDS011;3657;49.630;11.018;2023-02-23T14:11:10;47.53;;;41.40;;
7231;SDS011;3657;49.630;11.018;2023-02-23T14:13:57;38.80;;;34.57;;
7231;SDS011;3657;49.630;11.018;2023-02-23T14:16:25;51.87;;;43.23;;
7231;SDS011;3657;49.630;11.018;2023-02-23T14:18:55;50.47;;;41.47;;
7231;SDS011;3657;49.630;11.018;2023-02-23T14:21:32;49.37;;;41.73;;
7231;SDS011;3657;49.630;11.018;2023-02-23T14:24:03;42.57;;;37.97;;
7231;SDS011;3657;49.630;11.018;2023-02-23T14:26:42;32.07;;;29.00;;
7231;SDS011;3657;49.630;11.018;2023-02-23T14:29:27;36.47;;;32.53;;
7231;SDS011;3657;49.630;11.018;2023-02-23T14:31:59;42.47;;;37.93;;
7231;SDS011;3657;49.630;11.018;2023-02-23T14:34:43;36.83;;;33.03;;
7231;SDS011;3657;49.630;11.018;2023-02-23T14:37:22;45.10;;;39.07;;
7231;SDS011;3657;49.630;11.018;2023-02-23T14:39:51;31.70;;;28.43;;
7231;SDS011;3657;49.630;11.018;2023-02-23T14:42:20;46.50;;;37.87;;
7231;SDS011;3657;49.630;11.018;2023-02-23T14:44:49;45.90;;;38.00;;
7231;SDS011;3657;49.630;11.018;2023-02-23T14:47:17;38.50;;;34.43;;
7231;SDS011;3657;49.630;11.018;2023-02-23T14:49:48;44.00;;;36.63;;
7231;SDS011;3657;49.630;11.018;2023-02-23T14:52:18;44.73;;;36.73;;
7231;SDS011;3657;49.630;11.018;2023-02-23T14:54:48;30.00;;;27.10;;
7231;SDS011;3657;49.630;11.018;2023-02-23T14:57:17;30.63;;;27.67;;
7231;SDS011;3657;49.630;11.018;2023-02-23T14:59:52;49.80;;;42.60;;
7231;SDS011;3657;49.630;11.018;2023-02-23T15:02:22;34.73;;;31.03;;
7231;SDS011;3657;49.630;11.018;2023-02-23T15:04:52;32.33;;;29.23;;
7231;SDS011;3657;49.630;11.018;2023-02-23T15:07:20;29.73;;;26.73;;
7231;SDS011;3657;49.630;11.018;2023-02-23T15:09:55;32.47;;;29.13;;
7231;SDS011;3657;49.630;11.018;2023-02-23T15:12:24;29.77;;;26.97;;
7231;SDS011;3657;49.630;11.018;2023-02-23T15:14:54;35.23;;;31.57;;
7231;SDS011;3657;49.630;11.018;2023-02-23T15:17:24;25.87;;;23.67;;
7231;SDS011;3657;49.630;11.018;2023-02-23T15:19:56;25.97;;;23.57;;